createdAt,value
2022-08-26T00:02:35.334Z,7.99
2022-08-26T00:07:41.560Z,8.14
2022-08-26T00:12:47.442Z,8.05
2022-08-26T00:17:53.711Z,8.07
2022-08-26T00:22:59.865Z,8.48
2022-08-26T00:28:06.192Z,8.82
2022-08-26T00:33:11.926Z,8.31
2022-08-26T00:38:18.346Z,8.59
2022-08-26T00:43:24.486Z,8.82
2022-08-26T00:48:31.854Z,8.85
2022-08-26T00:53:36.517Z,8.82
2022-08-26T00:58:42.832Z,8.96
2022-08-26T01:03:48.476Z,8.81
2022-08-26T01:08:54.820Z,9.17
2022-08-26T01:14:00.889Z,8.87
2022-08-26T01:19:06.661Z,9.21
2022-08-26T01:24:13.904Z,9.15
2022-08-26T01:29:18.607Z,9.96
2022-08-26T01:34:24.354Z,9.80
2022-08-26T01:39:30.590Z,9.53
2022-08-26T01:44:36.717Z,9.83
2022-08-26T01:49:43.071Z,9.91
2022-08-26T01:54:50.553Z,10.02
2022-08-26T01:59:54.986Z,10.18
2022-08-26T02:05:01.073Z,10.57
2022-08-26T02:10:07.457Z,11.20
2022-08-26T02:15:13.613Z,11.12
2022-08-26T02:20:19.886Z,11.02
2022-08-26T02:25:25.578Z,11.41
2022-08-26T02:30:31.792Z,12.11
2022-08-26T02:35:37.949Z,11.81
2022-08-26T02:40:44.197Z,10.99
2022-08-26T02:45:50.388Z,11.60
2022-08-26T02:50:56.597Z,11.65
2022-08-26T02:56:02.862Z,11.73
2022-08-26T03:01:09.130Z,11.75
2022-08-26T03:06:15.328Z,11.23
2022-08-26T03:11:21.524Z,11.69
2022-08-26T03:16:32.534Z,11.91
2022-08-26T03:21:33.471Z,11.85
2022-08-26T03:26:39.777Z,11.97
2022-08-26T03:31:46.874Z,12.06
2022-08-26T03:36:51.402Z,11.34
2022-08-26T03:41:57.709Z,11.84
2022-08-26T03:47:04.049Z,11.49
2022-08-26T03:52:09.862Z,12.49
2022-08-26T03:57:16.754Z,11.83
2022-08-26T04:02:21.941Z,12.23
2022-08-26T04:07:28.410Z,12.07
2022-08-26T04:12:34.486Z,12.58
2022-08-26T04:17:40.594Z,11.82
2022-08-26T04:22:46.987Z,11.83
2022-08-26T04:27:53.209Z,11.55
2022-08-26T04:32:59.689Z,12.24
2022-08-26T04:38:06.067Z,12.37
2022-08-26T04:43:11.760Z,12.55
2022-08-26T04:48:19.976Z,12.20
2022-08-26T04:53:26.380Z,12.76
2022-08-26T04:58:32.677Z,12.36
2022-08-26T05:03:39.079Z,12.17
2022-08-26T05:08:44.708Z,11.81
2022-08-26T05:13:51.046Z,13.03
2022-08-26T05:18:57.519Z,12.88
2022-08-26T05:24:03.748Z,12.74
2022-08-26T05:29:09.937Z,12.55
2022-08-26T05:34:16.276Z,12.68
2022-08-26T05:39:22.377Z,13.57
2022-08-26T05:44:28.568Z,14.05
2022-08-26T05:49:34.685Z,12.95
2022-08-26T05:54:40.480Z,14.44
2022-08-26T05:59:46.576Z,14.19
2022-08-26T06:04:54.643Z,13.76
2022-08-26T06:10:28.128Z,15.35
2022-08-26T06:15:06.535Z,15.65
2022-08-26T06:20:12.783Z,16.86
2022-08-26T06:25:19.041Z,16.59
2022-08-26T06:30:25.276Z,16.16
2022-08-26T06:35:31.449Z,15.58
2022-08-26T06:40:37.565Z,15.41
2022-08-26T06:45:43.685Z,14.10
2022-08-26T06:50:50.145Z,15.49
2022-08-26T06:55:56.517Z,14.87
2022-08-26T07:01:09.096Z,14.97
2022-08-26T07:06:08.393Z,14.77
2022-08-26T07:11:14.053Z,16.11
2022-08-26T07:16:20.761Z,15.64
2022-08-26T07:21:26.832Z,15.58
2022-08-26T07:26:33.183Z,15.25
2022-08-26T07:31:43.007Z,14.74
2022-08-26T07:36:46.307Z,13.98
2022-08-26T07:41:52.483Z,14.30
2022-08-26T07:46:58.748Z,14.86
2022-08-26T07:52:04.897Z,12.56
2022-08-26T07:57:11.080Z,12.90
2022-08-26T08:02:17.205Z,14.33
2022-08-26T08:07:25.794Z,12.97
2022-08-26T08:12:29.169Z,12.92
2022-08-26T08:17:35.353Z,12.24
2022-08-26T08:22:41.469Z,11.93
2022-08-26T08:27:47.692Z,10.37
2022-08-26T08:32:53.360Z,11.77
2022-08-26T08:37:59.240Z,11.33
2022-08-26T08:43:05.451Z,11.61
2022-08-26T08:48:11.768Z,12.16
2022-08-26T08:53:17.889Z,12.55
2022-08-26T08:58:24.129Z,10.66
2022-08-26T09:03:30.328Z,11.22
2022-08-26T09:08:36.474Z,10.98
2022-08-26T09:13:42.912Z,11.18
2022-08-26T09:18:49.136Z,11.72
2022-08-26T09:23:54.943Z,12.81
2022-08-26T09:29:01.111Z,13.11
2022-08-26T09:34:07.241Z,11.39
2022-08-26T09:39:13.555Z,11.55
2022-08-26T09:44:19.632Z,13.08
2022-08-26T09:49:25.397Z,13.23
2022-08-26T09:54:32.401Z,13.70
2022-08-26T09:59:37.717Z,12.85
2022-08-26T10:04:43.901Z,13.09
2022-08-26T10:09:50.258Z,14.13
2022-08-26T10:14:55.873Z,11.54
2022-08-26T10:20:02.064Z,14.97
2022-08-26T10:25:08.209Z,13.08
2022-08-26T10:30:14.572Z,13.83
2022-08-26T10:35:20.112Z,14.97
2022-08-26T10:40:26.114Z,16.38
2022-08-26T10:45:31.775Z,15.22
2022-08-26T10:50:37.861Z,14.70
2022-08-26T10:55:43.500Z,15.84
2022-08-26T11:00:49.385Z,15.51
2022-08-26T11:05:55.461Z,15.31
2022-08-26T11:11:01.652Z,16.74
2022-08-26T11:16:07.838Z,13.94
2022-08-26T11:21:14.449Z,14.80
2022-08-26T11:26:46.818Z,13.84
2022-08-26T11:31:26.068Z,16.38
2022-08-26T11:36:31.804Z,16.60
2022-08-26T11:41:37.657Z,14.92
2022-08-26T11:46:43.743Z,13.82
2022-08-26T11:51:50.091Z,13.69
2022-08-26T11:56:56.304Z,12.96
2022-08-26T12:02:03.003Z,13.02
2022-08-26T12:07:09.124Z,12.92
2022-08-26T12:12:15.854Z,12.62
2022-08-26T12:17:22.524Z,14.11
2022-08-26T12:22:28.133Z,13.41
2022-08-26T12:27:34.319Z,12.79
2022-08-26T12:32:56.654Z,13.39
2022-08-26T12:37:47.274Z,12.92
2022-08-26T12:42:53.542Z,13.84
2022-08-26T12:47:59.657Z,14.03
2022-08-26T12:53:06.063Z,15.23
2022-08-26T12:58:12.637Z,14.47
2022-08-26T13:03:19.017Z,13.77
2022-08-26T13:08:25.266Z,13.21
2022-08-26T13:13:31.655Z,13.01
2022-08-26T13:18:37.809Z,13.15
2022-08-26T13:23:44.061Z,13.14
2022-08-26T13:29:01.214Z,11.27
2022-08-26T13:33:56.238Z,11.68
2022-08-26T13:39:02.033Z,9.83
2022-08-26T13:44:08.206Z,9.81
2022-08-26T13:49:14.474Z,10.38
2022-08-26T13:54:20.818Z,9.76
2022-08-26T13:59:26.954Z,10.10
2022-08-26T14:04:33.243Z,9.67
2022-08-26T14:09:39.635Z,9.43
2022-08-26T14:14:45.853Z,9.75
2022-08-26T14:19:52.007Z,9.43
2022-08-26T14:24:58.242Z,9.68
2022-08-26T14:30:04.714Z,8.65
2022-08-26T14:35:11.062Z,8.79
2022-08-26T14:40:17.353Z,8.56
2022-08-26T14:45:24.526Z,8.26
2022-08-26T14:50:30.811Z,7.81
2022-08-26T14:56:37.982Z,7.38
2022-08-26T15:01:44.294Z,6.76
2022-08-26T15:06:50.603Z,7.57
2022-08-26T15:11:56.934Z,7.12
2022-08-26T15:17:03.185Z,6.24
2022-08-26T15:22:09.361Z,5.75
2022-08-26T15:27:15.689Z,5.53
2022-08-26T15:32:21.925Z,5.02
2022-08-26T15:37:28.154Z,4.77
2022-08-26T15:42:34.260Z,5.05
2022-08-26T15:48:00.858Z,4.65
2022-08-26T15:52:46.409Z,4.09
2022-08-26T15:57:52.625Z,4.26
2022-08-26T16:02:58.825Z,3.93
2022-08-26T16:08:05.239Z,3.65
2022-08-26T16:13:12.951Z,3.41
2022-08-26T16:18:17.075Z,3.40
2022-08-26T16:23:23.718Z,3.87
2022-08-26T16:28:30.061Z,3.18
2022-08-26T16:33:36.277Z,3.22
2022-08-26T16:38:42.538Z,3.55
2022-08-26T16:43:48.669Z,3.17
2022-08-26T16:48:55.031Z,2.83
2022-08-26T16:54:01.567Z,3.10
2022-08-26T16:59:07.869Z,2.89
2022-08-26T17:04:16.935Z,2.71
2022-08-26T17:09:23.553Z,2.35
2022-08-26T17:14:29.758Z,2.51
2022-08-26T17:19:41.023Z,2.65
2022-08-26T17:24:41.916Z,2.75
2022-08-26T17:29:48.221Z,2.50
2022-08-26T17:34:54.317Z,2.63
2022-08-26T17:40:00.637Z,2.82
2022-08-26T17:45:06.737Z,2.70
2022-08-26T17:50:13.386Z,3.14
2022-08-26T17:55:19.721Z,3.05
2022-08-26T18:00:25.952Z,2.80
2022-08-26T18:05:32.082Z,3.53
2022-08-26T18:10:38.634Z,3.27
2022-08-26T18:15:45.942Z,3.40
2022-08-26T18:20:54.100Z,3.57
2022-08-26T18:25:57.790Z,3.87
2022-08-26T18:31:04.127Z,3.57
2022-08-26T18:36:10.271Z,3.44
2022-08-26T18:41:17.183Z,3.47
2022-08-26T18:46:23.440Z,3.65
2022-08-26T18:51:29.158Z,3.91
2022-08-26T18:56:35.302Z,3.62
2022-08-26T19:01:41.809Z,3.78
2022-08-26T19:06:47.817Z,3.69
2022-08-26T19:17:00.801Z,3.49
2022-08-26T19:22:06.997Z,3.72
2022-08-26T19:27:14.914Z,3.71
2022-08-26T19:32:18.658Z,3.32
2022-08-26T19:37:24.898Z,3.62
2022-08-26T19:42:31.332Z,3.63
2022-08-26T19:47:37.458Z,3.62
2022-08-26T19:52:43.749Z,3.37
2022-08-26T19:57:49.997Z,3.16
2022-08-26T20:02:56.508Z,3.41
2022-08-26T20:08:02.651Z,3.42
2022-08-26T20:13:09.358Z,3.41
2022-08-26T20:18:15.634Z,3.12
2022-08-26T20:23:22.099Z,3.11
2022-08-26T20:28:28.243Z,3.26
2022-08-26T20:33:44.348Z,3.25
2022-08-26T20:38:40.238Z,3.41
2022-08-26T20:43:46.514Z,3.25
2022-08-26T20:48:52.693Z,2.83
2022-08-26T20:53:59.292Z,3.18
2022-08-26T20:59:05.475Z,2.98
2022-08-26T21:04:11.737Z,2.79
2022-08-26T21:09:19.449Z,2.72
2022-08-26T21:14:25.912Z,2.89
2022-08-26T21:19:30.157Z,2.72
2022-08-26T21:24:36.549Z,2.48
2022-08-26T21:29:42.734Z,2.36
2022-08-26T21:34:49.033Z,2.87
2022-08-26T21:39:55.224Z,2.48
2022-08-26T21:45:01.725Z,2.72
2022-08-26T21:50:07.994Z,2.25
2022-08-26T21:55:14.321Z,2.39
2022-08-26T22:00:20.437Z,2.37
2022-08-26T22:05:26.662Z,2.33
2022-08-26T22:10:32.902Z,2.16
2022-08-26T22:15:39.434Z,2.30
2022-08-26T22:20:45.698Z,2.35
2022-08-26T22:25:51.871Z,2.23
2022-08-26T22:30:58.074Z,2.23
2022-08-26T22:36:04.357Z,1.68
2022-08-26T22:41:10.590Z,1.81
2022-08-26T22:46:16.858Z,2.20
2022-08-26T22:51:22.905Z,1.88
2022-08-26T22:56:29.094Z,1.68
2022-08-26T23:01:35.438Z,2.13
2022-08-26T23:06:41.754Z,1.90
2022-08-26T23:11:47.859Z,1.71
2022-08-26T23:16:54.113Z,1.74
2022-08-26T23:22:00.233Z,1.66
2022-08-26T23:27:06.630Z,1.56
2022-08-26T23:32:12.790Z,1.55
2022-08-26T23:37:18.965Z,1.96
2022-08-26T23:42:25.234Z,1.70
2022-08-26T23:47:31.106Z,1.67
2022-08-26T23:52:37.346Z,1.62
2022-08-26T23:57:43.762Z,1.70
